Latest Weather Observations for Colpoys Point

IDW60801

Issued at 10:14 pm WST Saturday 23 January 2021 (issued every 10 minutes, with the page automatically refreshed every 10 minutes)

About weather observations | Map of weather stations | Latest weather observations for WA | Other Formats
Station Details ID: 009255 Name: COLPOYS POINT Lat: -32.23 Lon: 115.70 Height: 3.0 m
Data from the previous 72 hours. | See also: Recent months for locations in Western Australia
Date/Time
WST
Temp
°C
App
Temp
°C
Dew
Point
°C
Rel
Hum
%
Delta-T
°C
Wind Press
QNH
hPa
Press
MSL
hPa
Rain since
9am
mm
Dir  Spd
km/h
Gust
km/h
Spd
kts
Gust
kts
23/10:00pm - - - - - SW 20 28 11 15 - - -
23/09:30pm - - - - - SW 24 30 13 16 - - -
23/09:00pm - - - - - WSW 19 24 10 13 - - -
23/08:30pm - - - - - SW 22 30 12 16 - - -
23/08:00pm - - - - - SW 24 30 13 16 - - -
23/07:30pm - - - - - WSW 20 28 11 15 - - -
23/07:00pm - - - - - WSW 24 32 13 17 - - -
23/06:30pm - - - - - SW 24 35 13 19 - - -
23/06:00pm - - - - - SW 24 32 13 17 - - -
23/05:30pm - - - - - SW 28 33 15 18 - - -
23/05:00pm - - - - - SW 26 33 14 18 - - -
23/04:30pm - - - - - SW 28 33 15 18 - - -
23/04:00pm - - - - - SW 30 33 16 18 - - -
23/03:30pm - - - - - SW 28 35 15 19 - - -
23/03:00pm - - - - - SW 30 39 16 21 - - -
23/02:30pm - - - - - SW 32 37 17 20 - - -
23/02:00pm - - - - - SW 30 35 16 19 - - -
23/01:30pm - - - - - SW 32 37 17 20 - - -
23/01:00pm - - - - - SW 33 39 18 21 - - -
23/12:30pm - - - - - SW 35 41 19 22 - - -
23/12:00pm - - - - - SSW 35 41 19 22 - - -
23/11:30am - - - - - SW 35 41 19 22 - - -
23/11:00am - - - - - SW 33 39 18 21 - - -
23/10:30am - - - - - SW 35 41 19 22 - - -
23/10:00am - - - - - SW 32 43 17 23 - - -
23/09:30am - - - - - SW 28 33 15 18 - - -
23/09:00am - - - - - SW 26 32 14 17 - - -
23/08:30am - - - - - SW 24 30 13 16 - - -
23/08:00am - - - - - SW 20 26 11 14 - - -
23/07:30am - - - - - SW 24 30 13 16 - - -
23/07:00am - - - - - SW 24 28 13 15 - - -
23/06:30am - - - - - SW 17 20 9 11 - - -
23/06:00am - - - - - SSW 11 13 6 7 - - -
23/05:30am - - - - - S 17 19 9 10 - - -
23/05:00am - - - - - S 13 15 7 8 - - -
23/04:30am - - - - - S 13 15 7 8 - - -
23/04:00am - - - - - SW 26 35 14 19 - - -
23/03:30am - - - - - SE 6 9 3 5 - - -
23/03:00am - - - - - SE 9 11 5 6 - - -
23/02:30am - - - - - SE 6 7 3 4 - - -
23/02:00am - - - - - SSE 9 11 5 6 - - -
23/01:30am - - - - - S 11 13 6 7 - - -
23/01:00am - - - - - SSW 13 17 7 9 - - -
23/12:30am - - - - - SSE 13 15 7 8 - - -
23/12:00am - - - - - SSE 17 19 9 10 - - -
 
Date/Time
WST
Temp
°C
App
Temp
°C
Dew
Point
°C
Rel
Hum
%
Delta-T
°C
Wind Press
QNH
hPa
Press
MSL
hPa
Rain since
9am
mm
Dir  Spd
km/h
Gust
km/h
Spd
kts
Gust
kts
22/11:30pm - - - - - SSE 17 20 9 11 - - -
22/11:00pm - - - - - S 9 11 5 6 - - -
22/10:30pm - - - - - SW 11 13 6 7 - - -
22/10:00pm - - - - - SSW 13 15 7 8 - - -
22/09:30pm - - - - - S 15 17 8 9 - - -
22/09:00pm - - - - - SSW 19 22 10 12 - - -
22/08:30pm - - - - - SSW 20 26 11 14 - - -
22/08:00pm - - - - - SW 24 28 13 15 - - -
22/07:30pm - - - - - SW 24 32 13 17 - - -
22/07:00pm - - - - - SSW 30 37 16 20 - - -
22/06:30pm - - - - - SSW 33 39 18 21 - - -
22/06:00pm - - - - - SSW 30 35 16 19 - - -
22/05:30pm - - - - - SSW 30 35 16 19 - - -
22/05:00pm - - - - - SW 32 37 17 20 - - -
22/04:30pm - - - - - SW 35 41 19 22 - - -
22/04:00pm - - - - - SW 39 44 21 24 - - -
22/03:30pm - - - - - SW 35 43 19 23 - - -
22/03:00pm - - - - - SW 35 43 19 23 - - -
22/02:30pm - - - - - SW 30 37 16 20 - - -
22/02:00pm - - - - - SW 28 32 15 17 - - -
22/01:30pm - - - - - SW 24 30 13 16 - - -
22/01:00pm - - - - - SW 26 32 14 17 - - -
22/12:30pm - - - - - SW 28 32 15 17 - - -
22/12:00pm - - - - - SW 24 30 13 16 - - -
22/11:30am - - - - - SW 22 26 12 14 - - -
22/11:00am - - - - - SW 17 20 9 11 - - -
22/10:30am - - - - - WNW 15 20 8 11 - - -
22/10:00am - - - - - NE 7 9 4 5 - - -
22/09:30am - - - - - CALM 0 7 0 4 - - -
22/09:00am - - - - - ENE 15 20 8 11 - - -
22/08:30am - - - - - E 19 24 10 13 - - -
22/08:00am - - - - - E 26 30 14 16 - - -
22/07:30am - - - - - E 24 30 13 16 - - -
22/07:00am - - - - - E 19 24 10 13 - - -
22/06:30am - - - - - E 30 35 16 19 - - -
22/06:00am - - - - - E 26 33 14 18 - - -
22/05:30am - - - - - E 30 35 16 19 - - -
22/05:00am - - - - - E 32 39 17 21 - - -
22/04:30am - - - - - E 32 37 17 20 - - -
22/04:00am - - - - - E 24 35 13 19 - - -
22/03:30am - - - - - E 28 32 15 17 - - -
22/03:00am - - - - - E 28 33 15 18 - - -
22/02:30am - - - - - E 28 33 15 18 - - -
22/02:00am - - - - - ESE 20 24 11 13 - - -
22/01:30am - - - - - ESE 26 30 14 16 - - -
22/01:00am - - - - - ESE 30 35 16 19 - - -
22/12:30am - - - - - ESE 19 24 10 13 - - -
22/12:00am - - - - - ESE 20 28 11 15 - - -
 
Date/Time
WST
Temp
°C
App
Temp
°C
Dew
Point
°C
Rel
Hum
%
Delta-T
°C
Wind Press
QNH
hPa
Press
MSL
hPa
Rain since
9am
mm
Dir  Spd
km/h
Gust
km/h
Spd
kts
Gust
kts
21/11:30pm - - - - - ESE 19 24 10 13 - - -
21/11:00pm - - - - - SE 17 17 9 9 - - -
21/10:30pm - - - - - S 19 20 10 11 - - -
21/10:00pm - - - - - S 20 24 11 13 - - -
21/09:30pm - - - - - SSW 28 32 15 17 - - -
21/09:00pm - - - - - SSW 35 41 19 22 - - -
21/08:30pm - - - - - SSW 37 44 20 24 - - -
21/08:00pm - - - - - SSW 35 44 19 24 - - -
21/07:30pm - - - - - SSW 37 44 20 24 - - -
21/07:00pm - - - - - SSW 39 48 21 26 - - -
21/06:30pm - - - - - SSW 37 46 20 25 - - -
21/06:00pm - - - - - SSW 35 43 19 23 - - -
21/05:30pm - - - - - SW 35 43 19 23 - - -
21/05:00pm - - - - - SW 35 41 19 22 - - -
21/04:30pm - - - - - SW 35 44 19 24 - - -
21/04:00pm - - - - - SW 39 46 21 25 - - -
21/03:30pm - - - - - SW 37 46 20 25 - - -
21/03:00pm - - - - - SW 37 48 20 26 - - -
21/02:30pm - - - - - SW 39 48 21 26 - - -
21/02:00pm - - - - - SW 41 52 22 28 - - -
21/01:30pm - - - - - SW 37 44 20 24 - - -
21/01:00pm - - - - - SW 35 43 19 23 - - -
21/12:30pm - - - - - SW 33 41 18 22 - - -
21/12:00pm - - - - - SW 35 39 19 21 - - -
21/11:30am - - - - - SW 32 39 17 21 - - -
21/11:00am - - - - - SW 32 37 17 20 - - -
21/10:30am - - - - - SSW 30 33 16 18 - - -
21/10:00am - - - - - SSW 20 30 11 16 - - -
21/09:30am - - - - - S 13 17 7 9 - - -
21/09:00am - - - - - SE 13 17 7 9 - - -
21/08:30am - - - - - SSE 13 15 7 8 - - -
21/08:00am - - - - - SSE 19 24 10 13 - - -
21/07:30am - - - - - S 20 24 11 13 - - -
21/07:00am - - - - - S 19 22 10 12 - - -
21/06:30am - - - - - SSE 19 20 10 11 - - -
21/06:00am - - - - - SSE 20 26 11 14 - - -
21/05:30am - - - - - SSE 24 28 13 15 - - -
21/05:00am - - - - - SSE 22 26 12 14 - - -
21/04:30am - - - - - SSE 19 24 10 13 - - -
21/04:00am - - - - - SSE 24 26 13 14 - - -
21/03:30am - - - - - S 28 32 15 17 - - -
21/03:00am - - - - - S 20 26 11 14 - - -
21/02:30am - - - - - S 22 24 12 13 - - -
21/02:00am - - - - - SSE 19 20 10 11 - - -
21/01:30am - - - - - S 19 22 10 12 - - -
21/01:00am - - - - - S 17 20 9 11 - - -
21/12:30am - - - - - S 19 22 10 12 - - -
21/12:00am - - - - - SSW 26 30 14 16 - - -
 
Date/Time
WST
Temp
°C
App
Temp
°C
Dew
Point
°C
Rel
Hum
%
Delta-T
°C
Wind Press
QNH
hPa
Press
MSL
hPa
Rain since
9am
mm
Dir  Spd
km/h
Gust
km/h
Spd
kts
Gust
kts
20/11:30pm - - - - - SSW 28 32 15 17 - - -
20/11:00pm - - - - - SSW 19 22 10 12 - - -
20/10:30pm - - - - - SSW 19 22 10 12 - - -

Other formats

Comma delimited format used in spreadsheet applications
http://www.bom.gov.au/fwo/IDW60801/IDW60801.99255.axf

JavaScript Object Notation format (JSON) in row-major order
http://www.bom.gov.au/fwo/IDW60801/IDW60801.99255.json

Data quality

Most of these data are generated automatically and are frequently updated. Quality checks on data are not normally performed. It is possible for incorrect values to appear. Refer to information at About Latest Weather Observations and please check the disclaimer before using these data.